createdAt,value
2023-02-05T00:02:11.059Z,102696.59
2023-02-05T00:04:39.494Z,102694.38
2023-02-05T00:07:27.855Z,102694.13
2023-02-05T00:09:56.876Z,102693.53
2023-02-05T00:12:25.859Z,102689.88
2023-02-05T00:14:54.134Z,102689.03
2023-02-05T00:17:22.922Z,102687.03
2023-02-05T00:19:52.184Z,102692.84
2023-02-05T00:22:21.004Z,102688.13
2023-02-05T00:24:50.920Z,102683.72
2023-02-05T00:27:19.239Z,102687.53
2023-02-05T00:29:47.362Z,102679.16
2023-02-05T00:32:16.210Z,102677.81
2023-02-05T00:34:44.551Z,102676.31
2023-02-05T00:37:13.556Z,102680.25
2023-02-05T00:39:42.971Z,102670.50
2023-02-05T00:42:13.020Z,102666.81
2023-02-05T00:44:47.284Z,102667.84
2023-02-05T00:47:15.462Z,102670.53
2023-02-05T00:49:44.055Z,102665.31
2023-02-05T00:52:13.432Z,102669.53
2023-02-05T00:54:42.590Z,102670.88
2023-02-05T00:57:13.705Z,102674.03
2023-02-05T00:59:41.891Z,102664.00
2023-02-05T01:02:10.103Z,102670.81
2023-02-05T01:04:38.545Z,102665.72
2023-02-05T01:07:08.143Z,102666.72
2023-02-05T01:09:36.565Z,102653.84
2023-02-05T01:12:05.204Z,102649.84
2023-02-05T01:14:35.496Z,102646.59
2023-02-05T01:17:04.119Z,102639.84
2023-02-05T01:19:34.352Z,102642.69
2023-02-05T01:22:02.590Z,102645.97
2023-02-05T01:24:32.375Z,102628.66
2023-02-05T01:27:00.923Z,102630.50
2023-02-05T01:29:29.464Z,102620.34
2023-02-05T01:31:59.495Z,102610.81
2023-02-05T01:34:27.943Z,102607.63
2023-02-05T01:36:56.260Z,102612.91
2023-02-05T01:39:24.801Z,102601.63
2023-02-05T01:41:53.260Z,102605.81
2023-02-05T01:44:24.748Z,102600.47
2023-02-05T01:46:56.059Z,102596.28
2023-02-05T01:49:31.264Z,102599.13
2023-02-05T01:52:04.967Z,102612.72
2023-02-05T01:54:37.864Z,102605.59
2023-02-05T01:57:08.707Z,102604.69
2023-02-05T01:59:40.009Z,102600.41
2023-02-05T02:02:09.010Z,102587.28
2023-02-05T02:04:41.519Z,102587.56
2023-02-05T02:07:13.222Z,102574.56
2023-02-05T02:09:44.107Z,102568.13
2023-02-05T02:12:15.170Z,102570.22
2023-02-05T02:14:48.849Z,102566.16
2023-02-05T02:17:18.081Z,102579.59
2023-02-05T02:19:55.189Z,102579.13
2023-02-05T02:22:38.820Z,102578.38
2023-02-05T02:25:41.424Z,102576.91
2023-02-05T02:28:15.157Z,102576.25
2023-02-05T02:30:50.064Z,102574.59
2023-02-05T02:33:22.205Z,102578.50
2023-02-05T02:36:00.259Z,102574.59
2023-02-05T02:38:33.400Z,102578.72
2023-02-05T02:41:08.599Z,102577.25
2023-02-05T02:43:46.008Z,102570.56
2023-02-05T02:46:22.144Z,102563.72
2023-02-05T02:48:53.662Z,102554.53
2023-02-05T02:51:24.256Z,102557.97
2023-02-05T02:53:57.447Z,102559.31
2023-02-05T02:56:28.897Z,102547.38
2023-02-05T02:59:02.649Z,102549.03
2023-02-05T03:01:34.243Z,102555.53
2023-02-05T03:04:09.593Z,102557.94
2023-02-05T03:06:41.181Z,102554.31
2023-02-05T03:09:14.539Z,102547.63
2023-02-05T03:11:42.849Z,102544.91
2023-02-05T03:14:15.463Z,102531.69
2023-02-05T03:16:43.719Z,102533.00
2023-02-05T03:19:12.291Z,102524.03
2023-02-05T03:21:44.388Z,102533.66
2023-02-05T03:24:13.230Z,102519.97
2023-02-05T03:26:42.179Z,102515.59
2023-02-05T03:29:26.601Z,102526.25
2023-02-05T03:32:07.760Z,102519.16
2023-02-05T03:34:53.688Z,102510.50
2023-02-05T03:37:35.046Z,102526.00
2023-02-05T03:40:14.956Z,102522.09
2023-02-05T03:42:54.720Z,102529.72
2023-02-05T03:45:34.410Z,102528.06
2023-02-05T03:48:17.637Z,102516.22
2023-02-05T03:50:54.108Z,102511.81
2023-02-05T03:53:29.374Z,102517.63
2023-02-05T03:56:05.930Z,102509.25
2023-02-05T03:58:39.400Z,102513.41
2023-02-05T04:01:12.119Z,102510.22
2023-02-05T04:03:41.364Z,102514.81
2023-02-05T04:06:09.588Z,102511.16
2023-02-05T04:08:38.213Z,102501.00
2023-02-05T04:11:07.338Z,102501.28
2023-02-05T04:13:36.097Z,102509.06
2023-02-05T04:16:05.814Z,102516.06
2023-02-05T04:18:35.936Z,102532.69
2023-02-05T04:21:05.458Z,102527.06
2023-02-05T04:23:37.508Z,102526.16
2023-02-05T04:26:06.376Z,102537.44
2023-02-05T04:28:41.173Z,102542.03
2023-02-05T04:31:12.794Z,102528.19
2023-02-05T04:33:44.213Z,102534.75
2023-02-05T04:36:15.288Z,102519.41
2023-02-05T04:38:44.195Z,102513.00
2023-02-05T04:41:12.366Z,102522.78
2023-02-05T04:43:40.606Z,102521.53
2023-02-05T04:46:10.308Z,102521.88
2023-02-05T04:48:39.188Z,102525.69
2023-02-05T04:51:09.641Z,102531.78
2023-02-05T04:53:37.945Z,102530.88
2023-02-05T04:56:08.750Z,102532.72
2023-02-05T04:58:37.272Z,102531.81
2023-02-05T05:01:06.551Z,102529.84
2023-02-05T05:03:36.195Z,102527.88
2023-02-05T05:06:05.499Z,102508.38
2023-02-05T05:08:35.323Z,102509.13
2023-02-05T05:11:07.295Z,102504.41
2023-02-05T05:13:36.347Z,102509.00
2023-02-05T05:16:06.080Z,102499.88
2023-02-05T05:18:36.175Z,102504.88
2023-02-05T05:21:05.805Z,102502.16
2023-02-05T05:23:37.278Z,102515.41
2023-02-05T05:26:07.837Z,102509.00
2023-02-05T05:28:36.834Z,102521.50
2023-02-05T05:31:09.703Z,102518.31
2023-02-05T05:33:38.892Z,102521.50
2023-02-05T05:36:09.255Z,102519.97
2023-02-05T05:38:39.486Z,102516.03
2023-02-05T05:41:25.585Z,102523.78
2023-02-05T05:43:58.033Z,102519.84
2023-02-05T05:46:27.219Z,102523.34
2023-02-05T05:48:57.388Z,102525.19
2023-02-05T05:51:27.982Z,102517.72
2023-02-05T05:53:59.110Z,102509.97
2023-02-05T05:56:28.778Z,102509.03
2023-02-05T05:58:56.984Z,102506.31
2023-02-05T06:01:27.761Z,102514.53
2023-02-05T06:03:55.918Z,102524.25
2023-02-05T06:06:24.522Z,102513.16
2023-02-05T06:08:52.778Z,102518.66
2023-02-05T06:11:22.394Z,102506.94
2023-02-05T06:13:50.513Z,102516.66
2023-02-05T06:16:18.829Z,102522.16
2023-02-05T06:18:47.070Z,102523.69
2023-02-05T06:21:16.789Z,102526.44
2023-02-05T06:23:45.177Z,102520.16
2023-02-05T06:26:13.765Z,102527.94
2023-02-05T06:28:43.328Z,102533.13
2023-02-05T06:31:11.435Z,102513.16
2023-02-05T06:33:39.772Z,102516.66
2023-02-05T06:36:08.837Z,102520.94
2023-02-05T06:38:37.357Z,102516.97
2023-02-05T06:41:06.888Z,102519.41
2023-02-05T06:43:36.561Z,102510.56
2023-02-05T06:46:06.321Z,102506.19
2023-02-05T06:48:34.502Z,102506.94
2023-02-05T06:51:03.265Z,102507.25
2023-02-05T06:53:31.807Z,102497.78
2023-02-05T06:56:00.461Z,102499.31
2023-02-05T06:58:29.261Z,102489.56
2023-02-05T07:00:57.778Z,102495.06
2023-02-05T07:03:27.984Z,102492.31
2023-02-05T07:05:56.193Z,102490.78
2023-02-05T07:08:24.545Z,102481.06
2023-02-05T07:10:53.904Z,102476.19
2023-02-05T07:13:22.638Z,102488.63
2023-02-05T07:15:51.155Z,102485.88
2023-02-05T07:18:19.506Z,102490.94
2023-02-05T07:20:49.506Z,102496.56
2023-02-05T07:23:17.673Z,102490.16
2023-02-05T07:25:47.069Z,102502.06
2023-02-05T07:28:15.308Z,102491.88
2023-02-05T07:30:43.619Z,102495.81
2023-02-05T07:33:11.760Z,102498.88
2023-02-05T07:35:40.574Z,102491.09
2023-02-05T07:38:10.930Z,102503.13
2023-02-05T07:40:39.107Z,102500.69
2023-02-05T07:43:07.390Z,102494.78
2023-02-05T07:45:36.061Z,102490.94
2023-02-05T07:48:04.525Z,102479.22
2023-02-05T07:50:33.018Z,102477.25
2023-02-05T07:53:01.556Z,102471.00
2023-02-05T07:55:31.135Z,102455.31
2023-02-05T07:57:59.281Z,102446.63
2023-02-05T08:00:28.157Z,102434.16
2023-02-05T08:02:56.476Z,102439.16
2023-02-05T08:05:24.934Z,102463.41
2023-02-05T08:07:53.130Z,102477.88
2023-02-05T08:10:21.424Z,102469.50
2023-02-05T08:12:51.789Z,102466.16
2023-02-05T08:15:20.027Z,102470.41
2023-02-05T08:17:48.135Z,102468.91
2023-02-05T08:20:16.830Z,102462.66
2023-02-05T08:22:46.674Z,102469.34
2023-02-05T08:25:15.987Z,102470.72
2023-02-05T08:27:46.085Z,102462.94
2023-02-05T08:30:20.478Z,102464.78
2023-02-05T08:32:49.655Z,102474.69
2023-02-05T08:35:18.278Z,102469.81
2023-02-05T08:37:46.823Z,102474.38
2023-02-05T08:40:15.325Z,102456.41
2023-02-05T08:42:43.759Z,102459.75
2023-02-05T08:45:11.956Z,102457.16
2023-02-05T08:47:41.995Z,102446.81
2023-02-05T08:50:10.894Z,102447.25
2023-02-05T08:52:39.132Z,102452.88
2023-02-05T08:55:09.092Z,102448.13
2023-02-05T08:57:39.273Z,102438.38
2023-02-05T09:00:09.345Z,102438.34
2023-02-05T09:02:37.851Z,102438.22
2023-02-05T09:05:09.963Z,102434.22
2023-02-05T09:07:41.745Z,102438.00
2023-02-05T09:10:11.988Z,102433.59
2023-02-05T09:12:40.356Z,102428.84
2023-02-05T09:15:10.996Z,102426.91
2023-02-05T09:17:39.156Z,102439.53
2023-02-05T09:20:10.389Z,102428.28
2023-02-05T09:22:38.656Z,102435.41
2023-02-05T09:25:07.636Z,102434.22
2023-02-05T09:27:36.264Z,102434.41
2023-02-05T09:30:05.449Z,102429.81
2023-02-05T09:32:33.647Z,102430.13
2023-02-05T09:35:02.018Z,102424.63
2023-02-05T09:37:32.225Z,102424.00
2023-02-05T09:42:59.817Z,102421.13
2023-02-05T09:45:43.776Z,102417.44
2023-02-05T09:48:39.013Z,102422.16
2023-02-05T09:51:11.091Z,102411.81
2023-02-05T09:53:46.644Z,102418.19
2023-02-05T09:56:16.991Z,102418.81
2023-02-05T09:58:50.424Z,102419.97
2023-02-05T10:01:23.563Z,102404.69
2023-02-05T10:03:56.239Z,102401.50
2023-02-05T10:06:43.413Z,102402.84
2023-02-05T10:09:27.060Z,102402.31
2023-02-05T10:12:04.053Z,102402.16
2023-02-05T10:14:46.848Z,102397.88
2023-02-05T10:17:39.306Z,102396.19
2023-02-05T10:20:22.141Z,102399.59
2023-02-05T10:23:01.589Z,102397.78
2023-02-05T10:25:45.784Z,102390.81
2023-02-05T10:28:29.957Z,102393.97
2023-02-05T10:31:07.822Z,102398.75
2023-02-05T10:33:47.109Z,102391.59
2023-02-05T10:36:18.948Z,102383.34
2023-02-05T10:38:47.509Z,102387.44
2023-02-05T10:41:23.854Z,102380.88
2023-02-05T10:44:02.362Z,102377.19
2023-02-05T10:46:34.720Z,102383.91
2023-02-05T10:49:07.947Z,102378.09
2023-02-05T10:51:41.566Z,102372.75
2023-02-05T10:54:19.727Z,102357.94
2023-02-05T10:56:50.968Z,102363.38
2023-02-05T10:59:25.853Z,102361.19
2023-02-05T11:01:57.257Z,102356.28
2023-02-05T11:04:35.287Z,102355.63
2023-02-05T11:07:06.338Z,102352.72
2023-02-05T11:09:36.244Z,102356.13
2023-02-05T11:12:15.519Z,102362.78
2023-02-05T11:14:46.858Z,102350.84
2023-02-05T11:17:22.743Z,102348.41
2023-02-05T11:19:55.536Z,102345.84
2023-02-05T11:22:28.316Z,102342.31
2023-02-05T11:25:08.000Z,102345.34
2023-02-05T11:27:38.520Z,102337.94
2023-02-05T11:30:49.626Z,102335.50
2023-02-05T11:33:33.712Z,102331.97
2023-02-05T11:36:04.613Z,102324.44
2023-02-05T11:38:39.652Z,102326.41
2023-02-05T11:41:09.962Z,102320.91
2023-02-05T11:43:41.933Z,102316.97
2023-02-05T11:46:16.288Z,102324.06
2023-02-05T11:48:48.365Z,102315.38
2023-02-05T11:51:28.966Z,102316.91
2023-02-05T11:54:00.911Z,102305.31
2023-02-05T11:56:29.480Z,102312.38
2023-02-05T11:59:03.978Z,102313.91
2023-02-05T12:01:34.933Z,102307.47
2023-02-05T12:04:17.869Z,102309.53
2023-02-05T12:06:51.569Z,102315.72
2023-02-05T12:09:22.975Z,102312.44
2023-02-05T12:12:18.306Z,102309.97
2023-02-05T12:14:54.696Z,102309.72
2023-02-05T12:17:36.987Z,102305.72
2023-02-05T12:20:21.651Z,102306.38
2023-02-05T12:23:11.213Z,102301.00
2023-02-05T12:25:47.021Z,102306.59
2023-02-05T12:28:31.315Z,102306.59
2023-02-05T12:31:14.416Z,102306.28
2023-02-05T12:34:00.611Z,102310.28
2023-02-05T12:36:47.155Z,102300.03
2023-02-05T12:39:32.241Z,102292.69
2023-02-05T12:42:09.366Z,102302.63
2023-02-05T12:44:52.925Z,102289.34
2023-02-05T12:47:43.768Z,102291.03
2023-02-05T12:50:27.453Z,102290.00
2023-02-05T12:53:10.540Z,102284.63
2023-02-05T12:55:51.551Z,102278.97
2023-02-05T12:58:21.964Z,102280.28
2023-02-05T13:00:54.500Z,102280.56
2023-02-05T13:03:31.943Z,102280.19
2023-02-05T13:06:05.037Z,102284.19
2023-02-05T13:08:42.809Z,102289.13
2023-02-05T13:11:18.685Z,102283.81
2023-02-05T13:13:54.604Z,102278.31
2023-02-05T13:16:29.690Z,102278.41
2023-02-05T13:19:04.961Z,102276.78
2023-02-05T13:21:52.407Z,102278.41
2023-02-05T13:24:46.782Z,102271.19
2023-02-05T13:27:40.925Z,102264.56
2023-02-05T13:30:16.233Z,102265.09
2023-02-05T13:32:49.514Z,102268.75
2023-02-05T13:35:20.275Z,102261.91
2023-02-05T13:38:11.010Z,102261.91
2023-02-05T13:40:56.705Z,102261.25
2023-02-05T13:43:55.536Z,102248.44
2023-02-05T13:46:48.655Z,102250.81
2023-02-05T13:49:46.712Z,102241.66
2023-02-05T13:52:35.420Z,102242.91
2023-02-05T13:55:17.910Z,102248.50
2023-02-05T13:58:10.893Z,102239.22
2023-02-05T14:00:41.626Z,102233.66
2023-02-05T14:03:36.763Z,102236.91
2023-02-05T14:06:17.531Z,102240.47
2023-02-05T14:08:47.326Z,102239.84
2023-02-05T14:11:15.694Z,102245.97
2023-02-05T14:13:44.294Z,102257.75
2023-02-05T14:16:35.445Z,102251.78
2023-02-05T14:19:22.297Z,102251.84
2023-02-05T14:22:12.800Z,102256.03
2023-02-05T14:24:47.885Z,102250.69
2023-02-05T14:27:55.206Z,102255.72
2023-02-05T14:30:52.040Z,102258.78
2023-02-05T14:33:29.760Z,102266.50
2023-02-05T14:35:59.556Z,102277.69
2023-02-05T14:38:34.054Z,102275.13
2023-02-05T14:41:09.462Z,102280.66
2023-02-05T14:43:40.659Z,102285.00
2023-02-05T14:46:23.533Z,102276.59
2023-02-05T14:48:58.048Z,102283.53
2023-02-05T14:51:32.821Z,102284.66
2023-02-05T14:54:05.194Z,102286.66
2023-02-05T14:56:40.509Z,102287.50
2023-02-05T14:59:22.327Z,102298.78
2023-02-05T15:01:54.333Z,102297.56
2023-02-05T15:04:33.879Z,102306.88
2023-02-05T15:07:11.026Z,102314.38
2023-02-05T15:09:44.626Z,102313.59
2023-02-05T15:12:32.857Z,102313.03
2023-02-05T15:15:17.234Z,102317.22
2023-02-05T15:17:52.843Z,102320.78
2023-02-05T15:20:28.025Z,102329.41
2023-02-05T15:23:02.838Z,102317.94
2023-02-05T15:25:37.549Z,102334.34
2023-02-05T15:28:18.890Z,102333.41
2023-02-05T15:30:54.456Z,102336.06
2023-02-05T15:33:35.528Z,102336.53
2023-02-05T15:36:12.356Z,102329.22
2023-02-05T15:38:47.895Z,102341.34
2023-02-05T15:41:17.079Z,102343.78
2023-02-05T15:44:00.707Z,102345.19
2023-02-05T15:46:33.214Z,102339.44
2023-02-05T15:49:02.354Z,102345.09
2023-02-05T15:51:33.832Z,102355.34
2023-02-05T15:54:04.176Z,102346.25
2023-02-05T15:56:37.236Z,102354.53
2023-02-05T15:59:14.053Z,102351.53
2023-02-05T16:01:46.754Z,102352.03
2023-02-05T16:04:19.324Z,102353.59
2023-02-05T16:06:48.290Z,102363.88
2023-02-05T16:09:18.845Z,102363.28
2023-02-05T16:11:48.450Z,102350.59
2023-02-05T16:14:19.940Z,102361.50
2023-02-05T16:16:58.936Z,102368.38
2023-02-05T16:19:32.838Z,102366.41
2023-02-05T16:22:05.090Z,102383.84
2023-02-05T16:24:36.242Z,102387.53
2023-02-05T16:27:08.385Z,102390.97
2023-02-05T16:29:48.795Z,102397.22
2023-02-05T16:32:23.477Z,102399.88
2023-02-05T16:34:52.248Z,102408.75
2023-02-05T16:37:23.840Z,102409.66
2023-02-05T16:39:55.121Z,102420.34
2023-02-05T16:42:38.198Z,102427.09
2023-02-05T16:45:31.364Z,102425.59
2023-02-05T16:48:23.081Z,102430.03
2023-02-05T16:50:52.266Z,102435.53
2023-02-05T16:53:26.368Z,102436.28
2023-02-05T16:55:59.167Z,102448.13
2023-02-05T16:58:36.754Z,102448.44
2023-02-05T17:01:06.762Z,102450.31
2023-02-05T17:03:39.109Z,102458.25
2023-02-05T17:06:13.633Z,102462.69
2023-02-05T17:08:45.417Z,102464.00
2023-02-05T17:11:34.114Z,102453.00
2023-02-05T17:14:27.674Z,102455.94
2023-02-05T17:17:00.826Z,102469.63
2023-02-05T17:19:30.936Z,102466.59
2023-02-05T17:22:23.271Z,102472.72
2023-02-05T17:24:54.973Z,102480.06
2023-02-05T17:27:30.342Z,102485.13
2023-02-05T17:29:59.920Z,102484.00
2023-02-05T17:32:32.340Z,102480.25
2023-02-05T17:35:01.558Z,102491.88
2023-02-05T17:37:29.795Z,102489.69
2023-02-05T17:39:58.036Z,102488.94
2023-02-05T17:42:27.468Z,102498.25
2023-02-05T17:44:56.063Z,102491.69
2023-02-05T17:47:25.342Z,102483.91
2023-02-05T17:49:55.241Z,102499.06
2023-02-05T17:52:23.453Z,102500.69
2023-02-05T17:54:51.834Z,102501.31
2023-02-05T17:57:22.807Z,102497.59
2023-02-05T17:59:51.564Z,102494.47
2023-02-05T18:02:20.179Z,102501.03
2023-02-05T18:04:48.757Z,102502.38
2023-02-05T18:07:24.350Z,102501.66
2023-02-05T18:09:52.718Z,102508.38
2023-02-05T18:12:22.048Z,102515.03
2023-02-05T18:14:50.534Z,102520.41
2023-02-05T18:17:19.913Z,102527.59
2023-02-05T18:19:49.145Z,102529.75
2023-02-05T18:22:18.887Z,102543.16
2023-02-05T18:24:46.912Z,102545.75
2023-02-05T18:27:15.083Z,102546.09
2023-02-05T18:29:43.926Z,102549.88
2023-02-05T18:32:12.365Z,102545.97
2023-02-05T18:34:41.102Z,102540.78
2023-02-05T18:37:09.314Z,102552.03
2023-02-05T18:39:38.841Z,102545.16
2023-02-05T18:42:07.166Z,102550.84
2023-02-05T18:44:35.443Z,102552.63
2023-02-05T18:47:05.946Z,102550.84
2023-02-05T18:49:34.733Z,102551.91
2023-02-05T18:52:04.540Z,102560.63
2023-02-05T18:54:32.732Z,102559.53
2023-02-05T18:57:02.429Z,102560.75
2023-02-05T18:59:30.947Z,102560.28
2023-02-05T19:01:59.246Z,102572.38
2023-02-05T19:04:28.088Z,102581.81
2023-02-05T19:06:57.401Z,102571.75
2023-02-05T19:09:27.008Z,102573.75
2023-02-05T19:11:56.376Z,102574.81
2023-02-05T19:14:27.011Z,102569.50
2023-02-05T19:16:55.633Z,102567.63
2023-02-05T19:19:26.980Z,102561.25
2023-02-05T19:21:59.984Z,102565.84
2023-02-05T19:24:28.691Z,102573.59
2023-02-05T19:26:59.254Z,102578.03
2023-02-05T19:29:29.868Z,102577.41
2023-02-05T19:31:58.846Z,102578.94
2023-02-05T19:34:28.937Z,102586.56
2023-02-05T19:36:58.379Z,102596.16
2023-02-05T19:39:29.895Z,102593.13
2023-02-05T19:41:58.400Z,102593.44
2023-02-05T19:44:27.746Z,102597.53
2023-02-05T19:46:57.899Z,102596.94
2023-02-05T19:49:27.762Z,102599.06
2023-02-05T19:51:59.838Z,102593.13
2023-02-05T19:54:29.388Z,102602.28
2023-02-05T19:56:57.824Z,102611.88
2023-02-05T19:59:26.310Z,102612.19
2023-02-05T20:01:55.407Z,102611.56
2023-02-05T20:04:28.475Z,102627.25
2023-02-05T20:06:58.691Z,102627.84
2023-02-05T20:09:28.188Z,102625.88
2023-02-05T20:11:56.847Z,102618.72
2023-02-05T20:14:25.404Z,102621.59
2023-02-05T20:16:54.456Z,102605.91
2023-02-05T20:19:24.324Z,102617.03
2023-02-05T20:21:52.524Z,102626.47
2023-02-05T20:24:23.178Z,102635.78
2023-02-05T20:26:53.738Z,102641.59
2023-02-05T20:29:39.950Z,102632.56
2023-02-05T20:32:08.826Z,102642.03
2023-02-05T20:34:40.720Z,102647.06
2023-02-05T20:37:11.638Z,102652.25
2023-02-05T20:39:42.042Z,102653.91
2023-02-05T20:42:13.343Z,102663.38
2023-02-05T20:44:43.427Z,102654.50
2023-02-05T20:47:13.530Z,102665.19
2023-02-05T20:49:44.203Z,102662.16
2023-02-05T20:52:12.753Z,102670.69
2023-02-05T20:54:41.509Z,102675.75
2023-02-05T20:57:10.068Z,102663.44
2023-02-05T20:59:38.557Z,102674.97
2023-02-05T21:02:07.713Z,102685.97
2023-02-05T21:04:37.279Z,102681.25
2023-02-05T21:07:06.911Z,102678.94
2023-02-05T21:09:35.221Z,102685.38
2023-02-05T21:12:04.198Z,102683.56
2023-02-05T21:14:34.118Z,102686.59
2023-02-05T21:17:02.670Z,102691.31
2023-02-05T21:19:31.198Z,102689.31
2023-02-05T21:22:00.611Z,102694.63
2023-02-05T21:24:30.980Z,102711.84
2023-02-05T21:26:59.439Z,102702.66
2023-02-05T21:29:31.756Z,102704.75
2023-02-05T21:32:02.997Z,102701.72
2023-02-05T21:34:31.791Z,102706.59
2023-02-05T21:37:03.002Z,102709.91
2023-02-05T21:39:33.613Z,102715.09
2023-02-05T21:42:02.487Z,102717.50
2023-02-05T21:44:36.570Z,102702.41
2023-02-05T21:47:07.058Z,102711.41
2023-02-05T21:49:35.733Z,102716.31
2023-02-05T21:52:06.849Z,102714.00
2023-02-05T21:54:36.586Z,102711.09
2023-02-05T21:57:05.635Z,102712.94
2023-02-05T21:59:37.732Z,102711.09
2023-02-05T22:02:11.284Z,102712.59
2023-02-05T22:04:42.500Z,102713.19
2023-02-05T22:07:12.468Z,102721.09
2023-02-05T22:09:45.221Z,102726.91
2023-02-05T22:12:13.963Z,102732.72
2023-02-05T22:14:43.711Z,102734.38
2023-02-05T22:17:14.112Z,102754.91
2023-02-05T22:19:44.155Z,102753.97
2023-02-05T22:22:12.705Z,102768.03
2023-02-05T22:24:52.880Z,102759.81
2023-02-05T22:27:22.012Z,102761.97
2023-02-05T22:29:52.451Z,102767.78
2023-02-05T22:32:23.266Z,102783.34
2023-02-05T22:34:54.485Z,102776.28
2023-02-05T22:37:25.568Z,102782.16
2023-02-05T22:39:55.690Z,102785.81
2023-02-05T22:42:25.093Z,102779.50
2023-02-05T22:44:55.767Z,102780.25
2023-02-05T22:47:24.206Z,102782.63
2023-02-05T22:49:56.384Z,102790.28
2023-02-05T22:52:26.089Z,102784.88
2023-02-05T22:54:56.814Z,102791.50
2023-02-05T22:57:27.323Z,102786.16
2023-02-05T22:59:57.019Z,102794.88
2023-02-05T23:02:25.157Z,102788.88
2023-02-05T23:04:54.797Z,102789.31
2023-02-05T23:07:22.863Z,102798.78
2023-02-05T23:09:51.007Z,102801.94
2023-02-05T23:12:20.609Z,102807.00
2023-02-05T23:14:48.972Z,102803.34
2023-02-05T23:17:17.013Z,102803.03
2023-02-05T23:19:45.752Z,102801.44
2023-02-05T23:22:13.878Z,102801.75
2023-02-05T23:24:42.025Z,102800.25
2023-02-05T23:27:10.630Z,102812.53
2023-02-05T23:29:40.735Z,102805.78
2023-02-05T23:32:14.861Z,102800.16
2023-02-05T23:34:45.132Z,102804.25
2023-02-05T23:37:13.545Z,102816.69
2023-02-05T23:39:42.200Z,102802.72
2023-02-05T23:42:11.909Z,102806.66
2023-02-05T23:44:41.605Z,102811.06
2023-02-05T23:47:10.313Z,102809.63
2023-02-05T23:49:38.835Z,102813.53
2023-02-05T23:52:06.927Z,102809.88
2023-02-05T23:54:35.403Z,102818.03
2023-02-05T23:57:03.595Z,102819.69
2023-02-05T23:59:33.179Z,102810.69
